Nicholas L — WDE7436 — position and weather

sailwx.info

Track history (hours):
 
Tides and Currents Weather Stations Pressure Air Temp Water Temp Dewpoint Dewpoint Depression Visibility Wind Speed Wind Dir Waves Ship Positions

Nicholas L

Owner: SO. CAL. SHIP SERVICES, TERMINAL ISLAND, CA. More information available from US FCC via Universal Licensing System and Coast Guard Vessel Documentation Center.

Last reported at 2017-Sep-22 01:58 UTC. Time now 2017-Sep-23 16:30 UTC.
Position N 33°44' W 118°16'.

Length 31 m; draft 2.4 m.

Type: Port tender. MMSI: 367393270.

Date/timePositionNaut miles runAvg speedWind from/ knotsBaromVisibWave heightAir tempDewpointWater temp
2017-Sep-22 01:58N 33°44' W 118°16'510.3
2017-Sep-22 01:29N 33°40' W 118°13'711.5
2017-Sep-22 00:51N 33°34' W 118°07'411.7
2017-Sep-22 00:29N 33°38' W 118°10'815.9
2017-Sep-22 00:00N 33°44' W 118°16'1 1.1
2017-Sep-21 23:29N 33°44' W 118°16'0 0.0
2017-Sep-21 22:59N 33°44' W 118°16'0 0.0
2017-Sep-21 22:28N 33°44' W 118°16'0 0.0
2017-Sep-21 21:56N 33°44' W 118°16'0 0.0
2017-Sep-21 21:30N 33°44' W 118°16'0 0.0
2017-Sep-21 21:00N 33°44' W 118°16'0 0.0
2017-Sep-21 20:28N 33°44' W 118°16'0 0.8
2017-Sep-21 20:00N 33°44' W 118°16'0 0.7
2017-Sep-21 19:30N 33°44' W 118°16'2 4.3
2017-Sep-21 19:00N 33°42' W 118°15'816.3
2017-Sep-21 18:30N 33°36' W 118°09'1 2.8
2017-Sep-21 17:59N 33°35' W 118°08'714.6
2017-Sep-21 17:30N 33°41' W 118°13'5 9.0
2017-Sep-21 17:00N 33°44' W 118°16'2 3.2
2017-Sep-21 16:30N 33°43' W 118°15'916.8
2017-Sep-21 15:56N 33°35' W 118°08'2 4.1
2017-Sep-21 15:30N 33°34' W 118°07'711.6
2017-Sep-21 14:52N 33°40' W 118°12'514.0
2017-Sep-21 14:29N 33°44' W 118°16'0 0.1
2017-Sep-21 14:00N 33°44' W 118°16'1115.4
2017-Sep-21 13:18N 33°35' W 118°08'0 0.8
2017-Sep-21 12:49N 33°35' W 118°08'514.7
2017-Sep-21 12:30N 33°39' W 118°11'713.1
2017-Sep-21 11:59N 33°44' W 118°16'0 0.0
2017-Sep-21 02:50N 33°44' W 118°16'0 0.0
2017-Sep-21 02:31N 33°44' W 118°16'0 0.0
2017-Sep-21 02:00N 33°44' W 118°16'611.9
2017-Sep-21 01:30N 33°40' W 118°12'711.3
2017-Sep-21 00:54N 33°34' W 118°07'512.6
2017-Sep-21 00:30N 33°38' W 118°11'714.7
2017-Sep-21 00:00N 33°44' W 118°16'0 0.6
2017-Sep-20 23:30N 33°44' W 118°16'0 0.0
2017-Sep-20 23:00N 33°44' W 118°16'0 0.0
2017-Sep-20 22:30N 33°44' W 118°16'0 0.0
2017-Sep-20 22:00N 33°44' W 118°16'4 8.9
2017-Sep-20 21:30N 33°41' W 118°13'714.6
2017-Sep-20 21:01N 33°35' W 118°08'816.1
2017-Sep-20 20:30N 33°41' W 118°14'3 6.9
2017-Sep-20 20:00N 33°44' W 118°16'0 0.0
2017-Sep-20 19:30N 33°44' W 118°16'0 0.9
2017-Sep-20 19:00N 33°44' W 118°16'714.6
2017-Sep-20 18:30N 33°38' W 118°10'4 8.0
2017-Sep-20 17:58N 33°35' W 118°08'714.4
2017-Sep-20 17:30N 33°40' W 118°12'510.9
2017-Sep-20 17:00N 33°44' W 118°16'5 9.5
2017-Sep-20 16:30N 33°40' W 118°13'714.6
2017-Sep-20 15:59N 33°34' W 118°07'1 1.2
2017-Sep-20 15:24N 33°35' W 118°08'512.1
2017-Sep-20 14:59N 33°39' W 118°11'6 5.7
2017-Sep-20 13:59N 33°43' W 118°16'916.6
2017-Sep-20 13:26N 33°36' W 118°09'1 3.1
2017-Sep-20 12:59N 33°35' W 118°08'713.9
2017-Sep-20 12:29N 33°40' W 118°13'5 9.4
2017-Sep-20 11:59N 33°44' W 118°16'0 0.0
2017-Sep-20 03:00N 33°44' W 118°16'0 0.0
2017-Sep-20 02:30N 33°44' W 118°16'0 0.1
2017-Sep-20 02:00N 33°44' W 118°16'1014.2
2017-Sep-20 01:16N 33°36' W 118°08'2 7.6
2017-Sep-20 00:58N 33°34' W 118°07'714.1
2017-Sep-20 00:30N 33°39' W 118°12'612.1
2017-Sep-20 00:00N 33°44' W 118°16'0 0.0
2017-Sep-19 23:30N 33°44' W 118°16'0 0.0
2017-Sep-19 23:00N 33°44' W 118°16'4 9.1
2017-Sep-19 22:30N 33°41' W 118°13'711.5
2017-Sep-19 21:53N 33°35' W 118°08'1 2.5
2017-Sep-19 21:23N 33°34' W 118°07'3 8.6
2017-Sep-19 21:00N 33°37' W 118°09'816.7
2017-Sep-19 20:30N 33°43' W 118°15'1 2.0
2017-Sep-19 19:57N 33°44' W 118°16'0 0.8
2017-Sep-19 19:30N 33°44' W 118°16'0 0.7
2017-Sep-19 19:00N 33°44' W 118°16'1115.8
2017-Sep-19 18:17N 33°35' W 118°08'1 3.6
2017-Sep-19 17:57N 33°34' W 118°07'612.5
2017-Sep-19 17:30N 33°38' W 118°11'714.4
2017-Sep-19 17:00N 33°44' W 118°16'0 0.4
2017-Sep-19 16:30N 33°44' W 118°16'4 7.7
2017-Sep-19 16:01N 33°41' W 118°14'815.0
2017-Sep-19 15:29N 33°35' W 118°08'3 5.1
2017-Sep-19 14:56N 33°37' W 118°10'716.6
2017-Sep-19 14:30N 33°43' W 118°15'2 3.0
2017-Sep-19 13:58N 33°44' W 118°16'1213.4
2017-Sep-19 13:06N 33°35' W 118°08'110.0
2017-Sep-19 12:59N 33°34' W 118°07'1214.3
2017-Sep-19 12:09N 33°43' W 118°16'1 6.6
2017-Sep-19 12:01N 33°44' W 118°16'0 0.0
2017-Sep-19 02:44N 33°44' W 118°16'0 0.0
2017-Sep-19 02:28N 33°44' W 118°16'2 3.9
2017-Sep-19 02:00N 33°43' W 118°15'5 3.9
2017-Sep-19 00:39N 33°39' W 118°11'315.9
2017-Sep-19 00:29N 33°41' W 118°13'4 9.2
2017-Sep-19 00:00N 33°44' W 118°16'0 0.0
2017-Sep-18 23:30N 33°44' W 118°16'0 0.0
2017-Sep-18 23:00N 33°44' W 118°16'510.5
2017-Sep-18 22:29N 33°40' W 118°12'613.0
2017-Sep-18 22:00N 33°35' W 118°08'1 1.6
2017-Sep-18 21:24N 33°34' W 118°07'4 9.6
2017-Sep-18 21:00N 33°37' W 118°10'816.2
2017-Sep-18 20:29N 33°44' W 118°16'1 1.2
2017-Sep-18 19:59N 33°44' W 118°16'0 0.0
2017-Sep-18 19:30N 33°44' W 118°16'5 9.8
2017-Sep-18 19:00N 33°40' W 118°13'714.0
2017-Sep-18 18:30N 33°35' W 118°07'0 0.9
2017-Sep-18 18:00N 33°35' W 118°08'814.9
2017-Sep-18 17:30N 33°40' W 118°14'4 7.8
2017-Sep-18 16:58N 33°44' W 118°16'0 0.0
2017-Sep-18 16:25N 33°44' W 118°16'511.0
2017-Sep-18 15:59N 33°40' W 118°13'713.8
2017-Sep-18 15:29N 33°35' W 118°08'4 6.4
2017-Sep-18 14:51N 33°38' W 118°11'616.6
2017-Sep-18 14:30N 33°43' W 118°15'0 0.4
2017-Sep-18 14:00N 33°43' W 118°15'916.6
2017-Sep-18 13:27N 33°35' W 118°09'1 2.2
2017-Sep-18 13:00N 33°35' W 118°08'816.1
2017-Sep-18 12:28N 33°42' W 118°14'3 6.5
2017-Sep-18 12:00N 33°44' W 118°16'0 0.0
2017-Sep-18 01:37N 33°44' W 118°16'1 5.2
2017-Sep-18 01:30N 33°44' W 118°16'1111.0
2017-Sep-18 00:29N 33°35' W 118°08'0 0.3
2017-Sep-17 23:48N 33°35' W 118°08'0 0.0
2017-Sep-17 22:23N 33°35' W 118°08'0 0.3
2017-Sep-17 21:52N 33°35' W 118°08'1 1.8
2017-Sep-17 21:27N 33°35' W 118°08'716.8
2017-Sep-17 21:00N 33°41' W 118°14'3 6.6
2017-Sep-17 20:30N 33°44' W 118°16'0 0.8
2017-Sep-17 20:00N 33°44' W 118°16'0 0.7
2017-Sep-17 19:30N 33°44' W 118°16'2 3.0
2017-Sep-17 19:00N 33°43' W 118°15'1015.5
2017-Sep-17 18:21N 33°35' W 118°08'1 3.2
2017-Sep-17 17:55N 33°34' W 118°07'1 3.1
2017-Sep-17 17:28N 33°35' W 118°08'0 0.1
2017-Sep-17 16:41N 33°35' W 118°08'1 7.3
2017-Sep-17 16:30N 33°34' W 118°07'713.9
2017-Sep-17 15:59N 33°39' W 118°12'6 9.6
2017-Sep-17 15:23N 33°44' W 118°16'0 0.0
2017-Sep-17 14:59N 33°44' W 118°16'2 3.5
2017-Sep-17 14:21N 33°42' W 118°15'616.3
2017-Sep-17 13:58N 33°37' W 118°10'3 3.6
2017-Sep-17 13:08N 33°35' W 118°08'1 9.6
2017-Sep-17 13:00N 33°34' W 118°07'713.5
2017-Sep-17 12:30N 33°39' W 118°12'611.9
2017-Sep-17 11:59N 33°44' W 118°16'0 0.0
2017-Sep-17 01:46N 33°44' W 118°16'311.6
2017-Sep-17 01:30N 33°42' W 118°14'915.9
2017-Sep-17 00:56N 33°34' W 118°07'3 6.8
2017-Sep-17 00:30N 33°37' W 118°09'916.8
2017-Sep-16 23:59N 33°43' W 118°16'1 1.3
2017-Sep-16 23:30N 33°44' W 118°16'0 0.0
2017-Sep-16 23:00N 33°44' W 118°16'0 0.0
2017-Sep-16 22:29N 33°44' W 118°16'0 0.0
2017-Sep-16 21:59N 33°44' W 118°16'0 0.0
2017-Sep-16 21:30N 33°44' W 118°16'0 0.0
2017-Sep-16 21:00N 33°44' W 118°16'0 0.0
2017-Sep-16 20:30N 33°44' W 118°16'0 0.0
2017-Sep-16 20:00N 33°44' W 118°16'0 0.0
2017-Sep-16 19:30N 33°44' W 118°16'0 0.0
2017-Sep-16 18:59N 33°44' W 118°16'0 0.0
2017-Sep-16 18:29N 33°44' W 118°16'0 0.0
2017-Sep-16 18:00N 33°44' W 118°16'0 0.0
2017-Sep-16 17:29N 33°44' W 118°16'2 3.6
2017-Sep-16 16:59N 33°43' W 118°15'815.8
2017-Sep-16 16:28N 33°36' W 118°09'2 2.2
2017-Sep-16 15:42N 33°35' W 118°08'0 0.0
2017-Sep-16 15:28N 33°35' W 118°08'0 0.4
2017-Sep-16 14:57N 33°35' W 118°08'815.4
2017-Sep-16 14:27N 33°41' W 118°13'3 4.7
2017-Sep-16 13:49N 33°43' W 118°16'816.2
2017-Sep-16 13:18N 33°37' W 118°09'2 7.8
2017-Sep-16 13:00N 33°35' W 118°08'610.9
2017-Sep-16 12:26N 33°40' W 118°12'6 0.5
2017-Sep-16 01:50N 33°44' W 118°16'0 0.1
2017-Sep-16 01:30N 33°44' W 118°16'1114.1
2017-Sep-16 00:43N 33°35' W 118°08'1 2.5
2017-Sep-16 00:25N 33°35' W 118°08'410.4
2017-Sep-16 00:00N 33°38' W 118°11'715.1
2017-Sep-15 23:30N 33°44' W 118°16'0 0.3
2017-Sep-15 23:00N 33°44' W 118°16'1 1.5
2017-Sep-15 22:30N 33°43' W 118°16'815.4
2017-Sep-15 21:57N 33°37' W 118°10'3 6.2
2017-Sep-15 21:26N 33°34' W 118°07'613.2
2017-Sep-15 20:58N 33°41' W 118°06'614.1
2017-Sep-15 20:30N 33°45' W 118°11'4 8.0
2017-Sep-15 19:59N 33°44' W 118°16'0 0.4
2017-Sep-15 19:30N 33°44' W 118°16'3 5.1
2017-Sep-15 19:00N 33°42' W 118°14'816.1
2017-Sep-15 18:30N 33°36' W 118°08'1 1.0
2017-Sep-15 18:00N 33°35' W 118°08'816.0
2017-Sep-15 17:29N 33°42' W 118°14'2 5.1
2017-Sep-15 17:00N 33°44' W 118°16'914.8
2017-Sep-15 16:24N 33°37' W 118°09'3 3.3
2017-Sep-15 15:23N 33°34' W 118°07'2 4.2
2017-Sep-15 14:58N 33°36' W 118°08'715.9
2017-Sep-15 14:30N 33°41' W 118°14'3 6.4
2017-Sep-15 13:58N 33°44' W 118°16'612.3
2017-Sep-15 13:30N 33°40' W 118°12'713.8
2017-Sep-15 13:00N 33°34' W 118°07'611.8
2017-Sep-15 12:30N 33°39' W 118°11'713.7
2017-Sep-15 12:00N 33°44' W 118°16'0 0.3
2017-Sep-15 11:30N 33°44' W 118°16'0 0.0
2017-Sep-15 02:22N 33°44' W 118°16'1012.3
2017-Sep-15 01:31N 33°36' W 118°09'017.5
2017-Sep-15 01:30N 33°36' W 118°08'1 1.7
2017-Sep-15 00:59N 33°35' W 118°08'713.7
2017-Sep-15 00:30N 33°40' W 118°12'5 9.9
2017-Sep-15 00:00N 33°44' W 118°16'0 0.0
2017-Sep-14 23:30N 33°44' W 118°16'0 0.0
2017-Sep-14 23:00N 33°44' W 118°16'0 0.0
2017-Sep-14 22:30N 33°44' W 118°16'0 0.0
2017-Sep-14 22:00N 33°44' W 118°16'0 0.0
2017-Sep-14 21:30N 33°44' W 118°16'0 0.0
2017-Sep-14 21:00N 33°44' W 118°16'0 0.0
2017-Sep-14 20:30N 33°44' W 118°16'0 0.8
2017-Sep-14 20:00N 33°44' W 118°16'0 0.8
2017-Sep-14 19:30N 33°44' W 118°16'1 2.7
2017-Sep-14 19:00N 33°43' W 118°16'816.2
2017-Sep-14 18:30N 33°37' W 118°09'2 4.3
2017-Sep-14 18:01N 33°35' W 118°08'510.3
2017-Sep-14 17:30N 33°39' W 118°12'612.8
2017-Sep-14 17:00N 33°44' W 118°16'0 0.0
2017-Sep-14 16:30N 33°44' W 118°16'1 2.3
2017-Sep-14 16:00N 33°43' W 118°16'1016.4
2017-Sep-14 15:25N 33°36' W 118°08'1 2.1
2017-Sep-14 15:00N 33°35' W 118°08'713.5
2017-Sep-14 14:28N 33°41' W 118°13'4 9.3
2017-Sep-14 14:00N 33°44' W 118°16'611.2
2017-Sep-14 13:30N 33°40' W 118°12'613.3
2017-Sep-14 13:00N 33°34' W 118°07'611.1
2017-Sep-14 12:27N 33°39' W 118°12'613.1
2017-Sep-14 12:00N 33°44' W 118°16'0 0.0
2017-Sep-14 02:14N 33°44' W 118°16'0 0.0
2017-Sep-14 02:00N 33°44' W 118°16'612.1
2017-Sep-14 01:30N 33°39' W 118°12'712.8
2017-Sep-14 00:59N 33°34' W 118°07'713.1
2017-Sep-14 00:28N 33°39' W 118°12'613.3
2017-Sep-14 00:00N 33°44' W 118°16'1 1.2
2017-Sep-13 23:30N 33°44' W 118°16'814.6
2017-Sep-13 22:58N 33°38' W 118°10'3 6.5
2017-Sep-13 22:30N 33°35' W 118°08'917.5
2017-Sep-13 22:00N 33°42' W 118°15'2 4.8
2017-Sep-13 21:30N 33°44' W 118°16'0 0.0
2017-Sep-13 21:00N 33°44' W 118°16'0 0.0
2017-Sep-13 20:31N 33°44' W 118°16'0 0.0
2017-Sep-13 20:00N 33°44' W 118°16'0 0.0
2017-Sep-13 19:28N 33°44' W 118°16'1 1.7
2017-Sep-13 19:00N 33°43' W 118°16'815.8
2017-Sep-13 18:30N 33°37' W 118°10'4 8.5
2017-Sep-13 18:00N 33°34' W 118°07'5 9.9
2017-Sep-13 17:30N 33°38' W 118°10'815.2
2017-Sep-13 17:00N 33°44' W 118°16'0 0.6
2017-Sep-13 16:30N 33°44' W 118°16'610.6
2017-Sep-13 15:58N 33°40' W 118°12'613.3
2017-Sep-13 15:30N 33°35' W 118°08'4 7.9
2017-Sep-13 15:00N 33°38' W 118°10'813.8
2017-Sep-13 14:26N 33°44' W 118°16'3 6.7
2017-Sep-13 14:00N 33°42' W 118°14'816.1
2017-Sep-13 13:30N 33°35' W 118°08'0 0.2
2017-Sep-13 12:59N 33°35' W 118°08'816.8
2017-Sep-13 12:30N 33°42' W 118°14'3 5.9
2017-Sep-13 12:00N 33°44' W 118°16'0 0.0
2017-Sep-13 02:30N 33°44' W 118°16'1 1.6
2017-Sep-13 02:01N 33°43' W 118°16'815.2
2017-Sep-13 01:30N 33°38' W 118°10'4 7.8
2017-Sep-13 01:00N 33°34' W 118°07'611.2
2017-Sep-13 00:31N 33°39' W 118°11'713.3
2017-Sep-13 00:00N 33°44' W 118°16'0 0.0
2017-Sep-12 23:30N 33°44' W 118°16'0 0.0
2017-Sep-12 23:00N 33°44' W 118°16'0 0.0
2017-Sep-12 22:30N 33°44' W 118°16'0 0.7
2017-Sep-12 22:00N 33°44' W 118°17'0 0.7
2017-Sep-12 21:30N 33°44' W 118°16'0 0.0
2017-Sep-12 21:00N 33°44' W 118°16'0 0.0
2017-Sep-12 20:30N 33°44' W 118°16'0 0.0
2017-Sep-12 20:00N 33°44' W 118°16'0 0.0
2017-Sep-12 19:30N 33°44' W 118°16'0 0.1
2017-Sep-12 19:00N 33°44' W 118°16'713.6
2017-Sep-12 18:30N 33°39' W 118°11'610.8
2017-Sep-12 17:59N 33°34' W 118°07'613.8
2017-Sep-12 17:30N 33°39' W 118°12'612.1
2017-Sep-12 17:00N 33°44' W 118°16'0 0.0
2017-Sep-12 16:30N 33°44' W 118°16'1 1.7
2017-Sep-12 16:01N 33°43' W 118°16'815.8
2017-Sep-12 15:30N 33°37' W 118°10'3 5.7
2017-Sep-12 15:00N 33°35' W 118°08'715.5
2017-Sep-12 14:30N 33°41' W 118°13'4 7.8
2017-Sep-12 14:00N 33°44' W 118°16'714.4
2017-Sep-12 13:30N 33°39' W 118°10'611.3
2017-Sep-12 13:00N 33°34' W 118°07'612.1
2017-Sep-12 12:30N 33°39' W 118°11'713.4
2017-Sep-12 12:00N 33°44' W 118°16'0 0.0
2017-Sep-12 02:03N 33°44' W 118°16'0 0.0
2017-Sep-12 02:00N 33°44' W 118°16'  
Track history (hours):
 
Tides and Currents Weather Stations Pressure Air Temp Water Temp Dewpoint Dewpoint Depression Visibility Wind Speed Wind Dir Waves Ship Positions

Nicholas L

Owner: SO. CAL. SHIP SERVICES, TERMINAL ISLAND, CA. More information available from US FCC via Universal Licensing System and Coast Guard Vessel Documentation Center.

Last reported at 2017-Sep-22 01:58 UTC. Time now 2017-Sep-23 16:30 UTC.
Position N 33°44' W 118°16'.

Length 31 m; draft 2.4 m.

Type: Port tender. MMSI: 367393270.

Date/timePositionNaut miles runAvg speedWind from/ knotsBaromVisibWave heightAir tempDewpointWater temp
2017-Sep-22 01:58N 33°44' W 118°16'510.3
2017-Sep-22 01:29N 33°40' W 118°13'711.5
2017-Sep-22 00:51N 33°34' W 118°07'411.7
2017-Sep-22 00:29N 33°38' W 118°10'815.9
2017-Sep-22 00:00N 33°44' W 118°16'1 1.1
2017-Sep-21 23:29N 33°44' W 118°16'0 0.0
2017-Sep-21 22:59N 33°44' W 118°16'0 0.0
2017-Sep-21 22:28N 33°44' W 118°16'0 0.0
2017-Sep-21 21:56N 33°44' W 118°16'0 0.0
2017-Sep-21 21:30N 33°44' W 118°16'0 0.0
2017-Sep-21 21:00N 33°44' W 118°16'0 0.0
2017-Sep-21 20:28N 33°44' W 118°16'0 0.8
2017-Sep-21 20:00N 33°44' W 118°16'0 0.7
2017-Sep-21 19:30N 33°44' W 118°16'2 4.3
2017-Sep-21 19:00N 33°42' W 118°15'816.3
2017-Sep-21 18:30N 33°36' W 118°09'1 2.8
2017-Sep-21 17:59N 33°35' W 118°08'714.6
2017-Sep-21 17:30N 33°41' W 118°13'5 9.0
2017-Sep-21 17:00N 33°44' W 118°16'2 3.2
2017-Sep-21 16:30N 33°43' W 118°15'916.8
2017-Sep-21 15:56N 33°35' W 118°08'2 4.1
2017-Sep-21 15:30N 33°34' W 118°07'711.6
2017-Sep-21 14:52N 33°40' W 118°12'514.0
2017-Sep-21 14:29N 33°44' W 118°16'0 0.1
2017-Sep-21 14:00N 33°44' W 118°16'1115.4
2017-Sep-21 13:18N 33°35' W 118°08'0 0.8
2017-Sep-21 12:49N 33°35' W 118°08'514.7
2017-Sep-21 12:30N 33°39' W 118°11'713.1
2017-Sep-21 11:59N 33°44' W 118°16'0 0.0
2017-Sep-21 02:50N 33°44' W 118°16'0 0.0
2017-Sep-21 02:31N 33°44' W 118°16'0 0.0
2017-Sep-21 02:00N 33°44' W 118°16'611.9
2017-Sep-21 01:30N 33°40' W 118°12'711.3
2017-Sep-21 00:54N 33°34' W 118°07'512.6
2017-Sep-21 00:30N 33°38' W 118°11'714.7
2017-Sep-21 00:00N 33°44' W 118°16'0 0.6
2017-Sep-20 23:30N 33°44' W 118°16'0 0.0
2017-Sep-20 23:00N 33°44' W 118°16'0 0.0
2017-Sep-20 22:30N 33°44' W 118°16'0 0.0
2017-Sep-20 22:00N 33°44' W 118°16'4 8.9
2017-Sep-20 21:30N 33°41' W 118°13'714.6
2017-Sep-20 21:01N 33°35' W 118°08'816.1
2017-Sep-20 20:30N 33°41' W 118°14'3 6.9
2017-Sep-20 20:00N 33°44' W 118°16'0 0.0
2017-Sep-20 19:30N 33°44' W 118°16'0 0.9
2017-Sep-20 19:00N 33°44' W 118°16'714.6
2017-Sep-20 18:30N 33°38' W 118°10'4 8.0
2017-Sep-20 17:58N 33°35' W 118°08'714.4
2017-Sep-20 17:30N 33°40' W 118°12'510.9
2017-Sep-20 17:00N 33°44' W 118°16'5 9.5
2017-Sep-20 16:30N 33°40' W 118°13'714.6
2017-Sep-20 15:59N 33°34' W 118°07'1 1.2
2017-Sep-20 15:24N 33°35' W 118°08'512.1
2017-Sep-20 14:59N 33°39' W 118°11'6 5.7
2017-Sep-20 13:59N 33°43' W 118°16'916.6
2017-Sep-20 13:26N 33°36' W 118°09'1 3.1
2017-Sep-20 12:59N 33°35' W 118°08'713.9
2017-Sep-20 12:29N 33°40' W 118°13'5 9.4
2017-Sep-20 11:59N 33°44' W 118°16'0 0.0
2017-Sep-20 03:00N 33°44' W 118°16'0 0.0
2017-Sep-20 02:30N 33°44' W 118°16'0 0.1
2017-Sep-20 02:00N 33°44' W 118°16'1014.2
2017-Sep-20 01:16N 33°36' W 118°08'2 7.6
2017-Sep-20 00:58N 33°34' W 118°07'714.1
2017-Sep-20 00:30N 33°39' W 118°12'612.1
2017-Sep-20 00:00N 33°44' W 118°16'0 0.0
2017-Sep-19 23:30N 33°44' W 118°16'0 0.0
2017-Sep-19 23:00N 33°44' W 118°16'4 9.1
2017-Sep-19 22:30N 33°41' W 118°13'711.5
2017-Sep-19 21:53N 33°35' W 118°08'1 2.5
2017-Sep-19 21:23N 33°34' W 118°07'3 8.6
2017-Sep-19 21:00N 33°37' W 118°09'816.7
2017-Sep-19 20:30N 33°43' W 118°15'1 2.0
2017-Sep-19 19:57N 33°44' W 118°16'0 0.8
2017-Sep-19 19:30N 33°44' W 118°16'0 0.7
2017-Sep-19 19:00N 33°44' W 118°16'1115.8
2017-Sep-19 18:17N 33°35' W 118°08'1 3.6
2017-Sep-19 17:57N 33°34' W 118°07'612.5
2017-Sep-19 17:30N 33°38' W 118°11'714.4
2017-Sep-19 17:00N 33°44' W 118°16'0 0.4
2017-Sep-19 16:30N 33°44' W 118°16'4 7.7
2017-Sep-19 16:01N 33°41' W 118°14'815.0
2017-Sep-19 15:29N 33°35' W 118°08'3 5.1
2017-Sep-19 14:56N 33°37' W 118°10'716.6
2017-Sep-19 14:30N 33°43' W 118°15'2 3.0
2017-Sep-19 13:58N 33°44' W 118°16'1213.4
2017-Sep-19 13:06N 33°35' W 118°08'110.0
2017-Sep-19 12:59N 33°34' W 118°07'1214.3
2017-Sep-19 12:09N 33°43' W 118°16'1 6.6
2017-Sep-19 12:01N 33°44' W 118°16'0 0.0
2017-Sep-19 02:44N 33°44' W 118°16'0 0.0
2017-Sep-19 02:28N 33°44' W 118°16'2 3.9
2017-Sep-19 02:00N 33°43' W 118°15'5 3.9
2017-Sep-19 00:39N 33°39' W 118°11'315.9
2017-Sep-19 00:29N 33°41' W 118°13'4 9.2
2017-Sep-19 00:00N 33°44' W 118°16'0 0.0
2017-Sep-18 23:30N 33°44' W 118°16'0 0.0
2017-Sep-18 23:00N 33°44' W 118°16'510.5
2017-Sep-18 22:29N 33°40' W 118°12'613.0
2017-Sep-18 22:00N 33°35' W 118°08'1 1.6
2017-Sep-18 21:24N 33°34' W 118°07'4 9.6
2017-Sep-18 21:00N 33°37' W 118°10'816.2
2017-Sep-18 20:29N 33°44' W 118°16'1 1.2
2017-Sep-18 19:59N 33°44' W 118°16'0 0.0
2017-Sep-18 19:30N 33°44' W 118°16'5 9.8
2017-Sep-18 19:00N 33°40' W 118°13'714.0
2017-Sep-18 18:30N 33°35' W 118°07'0 0.9
2017-Sep-18 18:00N 33°35' W 118°08'814.9
2017-Sep-18 17:30N 33°40' W 118°14'4 7.8
2017-Sep-18 16:58N 33°44' W 118°16'0 0.0
2017-Sep-18 16:25N 33°44' W 118°16'511.0
2017-Sep-18 15:59N 33°40' W 118°13'713.8
2017-Sep-18 15:29N 33°35' W 118°08'4 6.4
2017-Sep-18 14:51N 33°38' W 118°11'616.6
2017-Sep-18 14:30N 33°43' W 118°15'0 0.4
2017-Sep-18 14:00N 33°43' W 118°15'916.6
2017-Sep-18 13:27N 33°35' W 118°09'1 2.2
2017-Sep-18 13:00N 33°35' W 118°08'816.1
2017-Sep-18 12:28N 33°42' W 118°14'3 6.5
2017-Sep-18 12:00N 33°44' W 118°16'0 0.0
2017-Sep-18 01:37N 33°44' W 118°16'1 5.2
2017-Sep-18 01:30N 33°44' W 118°16'1111.0
2017-Sep-18 00:29N 33°35' W 118°08'0 0.3
2017-Sep-17 23:48N 33°35' W 118°08'0 0.0
2017-Sep-17 22:23N 33°35' W 118°08'0 0.3
2017-Sep-17 21:52N 33°35' W 118°08'1 1.8
2017-Sep-17 21:27N 33°35' W 118°08'716.8
2017-Sep-17 21:00N 33°41' W 118°14'3 6.6
2017-Sep-17 20:30N 33°44' W 118°16'0 0.8
2017-Sep-17 20:00N 33°44' W 118°16'0 0.7
2017-Sep-17 19:30N 33°44' W 118°16'2 3.0
2017-Sep-17 19:00N 33°43' W 118°15'1015.5
2017-Sep-17 18:21N 33°35' W 118°08'1 3.2
2017-Sep-17 17:55N 33°34' W 118°07'1 3.1
2017-Sep-17 17:28N 33°35' W 118°08'0 0.1
2017-Sep-17 16:41N 33°35' W 118°08'1 7.3
2017-Sep-17 16:30N 33°34' W 118°07'713.9
2017-Sep-17 15:59N 33°39' W 118°12'6 9.6
2017-Sep-17 15:23N 33°44' W 118°16'0 0.0
2017-Sep-17 14:59N 33°44' W 118°16'2 3.5
2017-Sep-17 14:21N 33°42' W 118°15'616.3
2017-Sep-17 13:58N 33°37' W 118°10'3 3.6
2017-Sep-17 13:08N 33°35' W 118°08'1 9.6
2017-Sep-17 13:00N 33°34' W 118°07'713.5
2017-Sep-17 12:30N 33°39' W 118°12'611.9
2017-Sep-17 11:59N 33°44' W 118°16'0 0.0
2017-Sep-17 01:46N 33°44' W 118°16'311.6
2017-Sep-17 01:30N 33°42' W 118°14'915.9
2017-Sep-17 00:56N 33°34' W 118°07'3 6.8
2017-Sep-17 00:30N 33°37' W 118°09'916.8
2017-Sep-16 23:59N 33°43' W 118°16'1 1.3
2017-Sep-16 23:30N 33°44' W 118°16'0 0.0
2017-Sep-16 23:00N 33°44' W 118°16'0 0.0
2017-Sep-16 22:29N 33°44' W 118°16'0 0.0
2017-Sep-16 21:59N 33°44' W 118°16'0 0.0
2017-Sep-16 21:30N 33°44' W 118°16'0 0.0
2017-Sep-16 21:00N 33°44' W 118°16'0 0.0
2017-Sep-16 20:30N 33°44' W 118°16'0 0.0
2017-Sep-16 20:00N 33°44' W 118°16'0 0.0
2017-Sep-16 19:30N 33°44' W 118°16'0 0.0
2017-Sep-16 18:59N 33°44' W 118°16'0 0.0
2017-Sep-16 18:29N 33°44' W 118°16'0 0.0
2017-Sep-16 18:00N 33°44' W 118°16'0 0.0
2017-Sep-16 17:29N 33°44' W 118°16'2 3.6
2017-Sep-16 16:59N 33°43' W 118°15'815.8
2017-Sep-16 16:28N 33°36' W 118°09'2 2.2
2017-Sep-16 15:42N 33°35' W 118°08'0 0.0
2017-Sep-16 15:28N 33°35' W 118°08'0 0.4
2017-Sep-16 14:57N 33°35' W 118°08'815.4
2017-Sep-16 14:27N 33°41' W 118°13'3 4.7
2017-Sep-16 13:49N 33°43' W 118°16'816.2
2017-Sep-16 13:18N 33°37' W 118°09'2 7.8
2017-Sep-16 13:00N 33°35' W 118°08'610.9
2017-Sep-16 12:26N 33°40' W 118°12'6 0.5
2017-Sep-16 01:50N 33°44' W 118°16'0 0.1
2017-Sep-16 01:30N 33°44' W 118°16'1114.1
2017-Sep-16 00:43N 33°35' W 118°08'1 2.5
2017-Sep-16 00:25N 33°35' W 118°08'410.4
2017-Sep-16 00:00N 33°38' W 118°11'715.1
2017-Sep-15 23:30N 33°44' W 118°16'0 0.3
2017-Sep-15 23:00N 33°44' W 118°16'1 1.5
2017-Sep-15 22:30N 33°43' W 118°16'815.4
2017-Sep-15 21:57N 33°37' W 118°10'3 6.2
2017-Sep-15 21:26N 33°34' W 118°07'613.2
2017-Sep-15 20:58N 33°41' W 118°06'614.1
2017-Sep-15 20:30N 33°45' W 118°11'4 8.0
2017-Sep-15 19:59N 33°44' W 118°16'0 0.4
2017-Sep-15 19:30N 33°44' W 118°16'3 5.1
2017-Sep-15 19:00N 33°42' W 118°14'816.1
2017-Sep-15 18:30N 33°36' W 118°08'1 1.0
2017-Sep-15 18:00N 33°35' W 118°08'816.0
2017-Sep-15 17:29N 33°42' W 118°14'2 5.1
2017-Sep-15 17:00N 33°44' W 118°16'914.8
2017-Sep-15 16:24N 33°37' W 118°09'3 3.3
2017-Sep-15 15:23N 33°34' W 118°07'2 4.2
2017-Sep-15 14:58N 33°36' W 118°08'715.9
2017-Sep-15 14:30N 33°41' W 118°14'3 6.4
2017-Sep-15 13:58N 33°44' W 118°16'612.3
2017-Sep-15 13:30N 33°40' W 118°12'713.8
2017-Sep-15 13:00N 33°34' W 118°07'611.8
2017-Sep-15 12:30N 33°39' W 118°11'713.7
2017-Sep-15 12:00N 33°44' W 118°16'0 0.3
2017-Sep-15 11:30N 33°44' W 118°16'0 0.0
2017-Sep-15 02:22N 33°44' W 118°16'1012.3
2017-Sep-15 01:31N 33°36' W 118°09'017.5
2017-Sep-15 01:30N 33°36' W 118°08'1 1.7
2017-Sep-15 00:59N 33°35' W 118°08'713.7
2017-Sep-15 00:30N 33°40' W 118°12'5 9.9
2017-Sep-15 00:00N 33°44' W 118°16'0 0.0
2017-Sep-14 23:30N 33°44' W 118°16'0 0.0
2017-Sep-14 23:00N 33°44' W 118°16'0 0.0
2017-Sep-14 22:30N 33°44' W 118°16'0 0.0
2017-Sep-14 22:00N 33°44' W 118°16'0 0.0
2017-Sep-14 21:30N 33°44' W 118°16'0 0.0
2017-Sep-14 21:00N 33°44' W 118°16'0 0.0
2017-Sep-14 20:30N 33°44' W 118°16'0 0.8
2017-Sep-14 20:00N 33°44' W 118°16'0 0.8
2017-Sep-14 19:30N 33°44' W 118°16'1 2.7
2017-Sep-14 19:00N 33°43' W 118°16'816.2
2017-Sep-14 18:30N 33°37' W 118°09'2 4.3
2017-Sep-14 18:01N 33°35' W 118°08'510.3
2017-Sep-14 17:30N 33°39' W 118°12'612.8
2017-Sep-14 17:00N 33°44' W 118°16'0 0.0
2017-Sep-14 16:30N 33°44' W 118°16'1 2.3
2017-Sep-14 16:00N 33°43' W 118°16'1016.4
2017-Sep-14 15:25N 33°36' W 118°08'1 2.1
2017-Sep-14 15:00N 33°35' W 118°08'713.5
2017-Sep-14 14:28N 33°41' W 118°13'4 9.3
2017-Sep-14 14:00N 33°44' W 118°16'611.2
2017-Sep-14 13:30N 33°40' W 118°12'613.3
2017-Sep-14 13:00N 33°34' W 118°07'611.1
2017-Sep-14 12:27N 33°39' W 118°12'613.1
2017-Sep-14 12:00N 33°44' W 118°16'0 0.0
2017-Sep-14 02:14N 33°44' W 118°16'0 0.0
2017-Sep-14 02:00N 33°44' W 118°16'612.1
2017-Sep-14 01:30N 33°39' W 118°12'712.8
2017-Sep-14 00:59N 33°34' W 118°07'713.1
2017-Sep-14 00:28N 33°39' W 118°12'613.3
2017-Sep-14 00:00N 33°44' W 118°16'1 1.2
2017-Sep-13 23:30N 33°44' W 118°16'814.6
2017-Sep-13 22:58N 33°38' W 118°10'3 6.5
2017-Sep-13 22:30N 33°35' W 118°08'917.5
2017-Sep-13 22:00N 33°42' W 118°15'2 4.8
2017-Sep-13 21:30N 33°44' W 118°16'0 0.0
2017-Sep-13 21:00N 33°44' W 118°16'0 0.0
2017-Sep-13 20:31N 33°44' W 118°16'0 0.0
2017-Sep-13 20:00N 33°44' W 118°16'0 0.0
2017-Sep-13 19:28N 33°44' W 118°16'1 1.7
2017-Sep-13 19:00N 33°43' W 118°16'815.8
2017-Sep-13 18:30N 33°37' W 118°10'4 8.5
2017-Sep-13 18:00N 33°34' W 118°07'5 9.9
2017-Sep-13 17:30N 33°38' W 118°10'815.2
2017-Sep-13 17:00N 33°44' W 118°16'0 0.6
2017-Sep-13 16:30N 33°44' W 118°16'610.6
2017-Sep-13 15:58N 33°40' W 118°12'613.3
2017-Sep-13 15:30N 33°35' W 118°08'4 7.9
2017-Sep-13 15:00N 33°38' W 118°10'813.8
2017-Sep-13 14:26N 33°44' W 118°16'3 6.7
2017-Sep-13 14:00N 33°42' W 118°14'816.1
2017-Sep-13 13:30N 33°35' W 118°08'0 0.2
2017-Sep-13 12:59N 33°35' W 118°08'816.8
2017-Sep-13 12:30N 33°42' W 118°14'3 5.9
2017-Sep-13 12:00N 33°44' W 118°16'0 0.0
2017-Sep-13 02:30N 33°44' W 118°16'1 1.6
2017-Sep-13 02:01N 33°43' W 118°16'815.2
2017-Sep-13 01:30N 33°38' W 118°10'4 7.8
2017-Sep-13 01:00N 33°34' W 118°07'611.2
2017-Sep-13 00:31N 33°39' W 118°11'713.3
2017-Sep-13 00:00N 33°44' W 118°16'0 0.0
2017-Sep-12 23:30N 33°44' W 118°16'0 0.0
2017-Sep-12 23:00N 33°44' W 118°16'0 0.0
2017-Sep-12 22:30N 33°44' W 118°16'0 0.7
2017-Sep-12 22:00N 33°44' W 118°17'0 0.7
2017-Sep-12 21:30N 33°44' W 118°16'0 0.0
2017-Sep-12 21:00N 33°44' W 118°16'0 0.0
2017-Sep-12 20:30N 33°44' W 118°16'0 0.0
2017-Sep-12 20:00N 33°44' W 118°16'0 0.0
2017-Sep-12 19:30N 33°44' W 118°16'0 0.1
2017-Sep-12 19:00N 33°44' W 118°16'713.6
2017-Sep-12 18:30N 33°39' W 118°11'610.8
2017-Sep-12 17:59N 33°34' W 118°07'613.8
2017-Sep-12 17:30N 33°39' W 118°12'612.1
2017-Sep-12 17:00N 33°44' W 118°16'0 0.0
2017-Sep-12 16:30N 33°44' W 118°16'1 1.7
2017-Sep-12 16:01N 33°43' W 118°16'815.8
2017-Sep-12 15:30N 33°37' W 118°10'3 5.7
2017-Sep-12 15:00N 33°35' W 118°08'715.5
2017-Sep-12 14:30N 33°41' W 118°13'4 7.8
2017-Sep-12 14:00N 33°44' W 118°16'714.4
2017-Sep-12 13:30N 33°39' W 118°10'611.3
2017-Sep-12 13:00N 33°34' W 118°07'612.1
2017-Sep-12 12:30N 33°39' W 118°11'713.4
2017-Sep-12 12:00N 33°44' W 118°16'0 0.0
2017-Sep-12 02:03N 33°44' W 118°16'0 0.0
2017-Sep-12 02:00N 33°44' W 118°16'  

Dump ship's entire track history